sensor_id;sensor_type;location;lat;lon;timestamp;pressure;altitude;pressure_sealevel;temperature;humidity
17525;BME280;40431;52.198;9.902;2023-09-18T00:01:15;100171.31;;;19.70;100.00
17525;BME280;40431;52.198;9.902;2023-09-18T00:03:44;100172.41;;;19.77;100.00
17525;BME280;40431;52.198;9.902;2023-09-18T00:06:11;100171.94;;;19.82;100.00
17525;BME280;40431;52.198;9.902;2023-09-18T00:08:38;100166.28;;;19.83;100.00
17525;BME280;40431;52.198;9.902;2023-09-18T00:11:05;100163.53;;;19.83;100.00
17525;BME280;40431;52.198;9.902;2023-09-18T00:13:32;100154.44;;;19.83;100.00
17525;BME280;40431;52.198;9.902;2023-09-18T00:16:00;100141.53;;;19.83;100.00
17525;BME280;40431;52.198;9.902;2023-09-18T00:18:26;100131.06;;;19.87;100.00
17525;BME280;40431;52.198;9.902;2023-09-18T00:20:52;100127.44;;;19.87;100.00
17525;BME280;40431;52.198;9.902;2023-09-18T00:23:19;100120.75;;;19.89;100.00
17525;BME280;40431;52.198;9.902;2023-09-18T00:25:45;100127.81;;;19.92;100.00
17525;BME280;40431;52.198;9.902;2023-09-18T00:28:12;100124.38;;;19.90;100.00
17525;BME280;40431;52.198;9.902;2023-09-18T00:30:42;100116.75;;;19.83;100.00
17525;BME280;40431;52.198;9.902;2023-09-18T00:33:10;100107.59;;;19.75;100.00
17525;BME280;40431;52.198;9.902;2023-09-18T00:35:36;100110.63;;;19.63;100.00
17525;BME280;40431;52.198;9.902;2023-09-18T00:38:03;100103.19;;;19.56;100.00
17525;BME280;40431;52.198;9.902;2023-09-18T00:40:31;100102.13;;;19.48;100.00
17525;BME280;40431;52.198;9.902;2023-09-18T00:42:58;100096.06;;;19.45;100.00
17525;BME280;40431;52.198;9.902;2023-09-18T00:45:24;100095.06;;;19.46;100.00
17525;BME280;40431;52.198;9.902;2023-09-18T00:47:51;100085.63;;;19.48;100.00
17525;BME280;40431;52.198;9.902;2023-09-18T00:50:21;100075.25;;;19.42;100.00
17525;BME280;40431;52.198;9.902;2023-09-18T00:52:48;100078.50;;;19.38;100.00
17525;BME280;40431;52.198;9.902;2023-09-18T00:55:16;100074.19;;;19.35;100.00
17525;BME280;40431;52.198;9.902;2023-09-18T00:57:42;100074.53;;;19.32;100.00
17525;BME280;40431;52.198;9.902;2023-09-18T01:00:11;100075.19;;;19.26;100.00
17525;BME280;40431;52.198;9.902;2023-09-18T01:02:40;100066.72;;;19.19;100.00
17525;BME280;40431;52.198;9.902;2023-09-18T01:05:08;100048.44;;;19.10;100.00
17525;BME280;40431;52.198;9.902;2023-09-18T01:07:36;100047.91;;;19.06;100.00
17525;BME280;40431;52.198;9.902;2023-09-18T01:10:03;100047.34;;;19.02;100.00
17525;BME280;40431;52.198;9.902;2023-09-18T01:12:33;100040.31;;;19.00;100.00
17525;BME280;40431;52.198;9.902;2023-09-18T01:15:09;100043.53;;;18.95;100.00
17525;BME280;40431;52.198;9.902;2023-09-18T01:17:37;100038.38;;;18.92;100.00
17525;BME280;40431;52.198;9.902;2023-09-18T01:20:08;100032.16;;;18.90;100.00
17525;BME280;40431;52.198;9.902;2023-09-18T01:22:36;100020.00;;;18.93;100.00
17525;BME280;40431;52.198;9.902;2023-09-18T01:25:03;100016.69;;;18.89;100.00
17525;BME280;40431;52.198;9.902;2023-09-18T01:27:31;100022.91;;;18.91;100.00
17525;BME280;40431;52.198;9.902;2023-09-18T01:29:57;100020.72;;;18.95;100.00
17525;BME280;40431;52.198;9.902;2023-09-18T01:32:26;100031.38;;;18.98;100.00
17525;BME280;40431;52.198;9.902;2023-09-18T01:34:56;100017.63;;;18.98;100.00
17525;BME280;40431;52.198;9.902;2023-09-18T01:37:24;100025.16;;;18.96;100.00
17525;BME280;40431;52.198;9.902;2023-09-18T01:39:53;100020.47;;;18.88;100.00
17525;BME280;40431;52.198;9.902;2023-09-18T01:42:20;100020.03;;;18.75;100.00
17525;BME280;40431;52.198;9.902;2023-09-18T01:44:47;100014.66;;;18.73;100.00
17525;BME280;40431;52.198;9.902;2023-09-18T01:47:15;100017.56;;;18.72;100.00
17525;BME280;40431;52.198;9.902;2023-09-18T01:49:42;100010.22;;;18.72;100.00
17525;BME280;40431;52.198;9.902;2023-09-18T01:52:09;100001.97;;;18.72;100.00
17525;BME280;40431;52.198;9.902;2023-09-18T01:54:36;100002.13;;;18.70;100.00
17525;BME280;40431;52.198;9.902;2023-09-18T01:57:04;100000.25;;;18.71;100.00
17525;BME280;40431;52.198;9.902;2023-09-18T01:59:33;100000.81;;;18.75;100.00
17525;BME280;40431;52.198;9.902;2023-09-18T02:01:59;99998.91;;;18.75;100.00
17525;BME280;40431;52.198;9.902;2023-09-18T02:04:26;99999.06;;;18.74;100.00
17525;BME280;40431;52.198;9.902;2023-09-18T02:06:52;99997.34;;;18.73;100.00
17525;BME280;40431;52.198;9.902;2023-09-18T02:09:19;99996.16;;;18.75;100.00
17525;BME280;40431;52.198;9.902;2023-09-18T02:11:46;99995.16;;;18.76;100.00
17525;BME280;40431;52.198;9.902;2023-09-18T02:14:14;99990.34;;;18.78;100.00
17525;BME280;40431;52.198;9.902;2023-09-18T02:16:43;99983.09;;;18.77;100.00
17525;BME280;40431;52.198;9.902;2023-09-18T02:19:10;99976.78;;;18.77;100.00
17525;BME280;40431;52.198;9.902;2023-09-18T02:21:37;99975.22;;;18.74;100.00
17525;BME280;40431;52.198;9.902;2023-09-18T02:24:04;99972.47;;;18.74;100.00
17525;BME280;40431;52.198;9.902;2023-09-18T02:26:31;99976.09;;;18.75;100.00
17525;BME280;40431;52.198;9.902;2023-09-18T02:28:59;99962.66;;;18.72;100.00
17525;BME280;40431;52.198;9.902;2023-09-18T02:31:27;99973.13;;;18.68;100.00
17525;BME280;40431;52.198;9.902;2023-09-18T02:33:53;99963.00;;;18.68;100.00
17525;BME280;40431;52.198;9.902;2023-09-18T02:36:20;99960.41;;;18.67;100.00
17525;BME280;40431;52.198;9.902;2023-09-18T02:38:46;99954.91;;;18.67;100.00
17525;BME280;40431;52.198;9.902;2023-09-18T02:41:12;99951.47;;;18.65;100.00
17525;BME280;40431;52.198;9.902;2023-09-18T02:43:39;99942.19;;;18.66;100.00
17525;BME280;40431;52.198;9.902;2023-09-18T02:46:06;99941.66;;;18.62;100.00
17525;BME280;40431;52.198;9.902;2023-09-18T02:48:33;99936.16;;;18.62;100.00
17525;BME280;40431;52.198;9.902;2023-09-18T02:51:00;99944.22;;;18.64;100.00
17525;BME280;40431;52.198;9.902;2023-09-18T02:53:27;99933.97;;;18.66;100.00
17525;BME280;40431;52.198;9.902;2023-09-18T02:55:55;99935.53;;;18.68;100.00
17525;BME280;40431;52.198;9.902;2023-09-18T02:58:22;99929.19;;;18.68;100.00
17525;BME280;40431;52.198;9.902;2023-09-18T03:00:51;99933.97;;;18.66;100.00
17525;BME280;40431;52.198;9.902;2023-09-18T03:03:18;99925.41;;;18.69;100.00
17525;BME280;40431;52.198;9.902;2023-09-18T03:05:45;99923.69;;;18.68;100.00
17525;BME280;40431;52.198;9.902;2023-09-18T03:08:15;99914.75;;;18.66;100.00
17525;BME280;40431;52.198;9.902;2023-09-18T03:10:42;99911.94;;;18.58;100.00
17525;BME280;40431;52.198;9.902;2023-09-18T03:13:10;99905.06;;;18.53;100.00
17525;BME280;40431;52.198;9.902;2023-09-18T03:15:37;99910.16;;;18.48;100.00
17525;BME280;40431;52.198;9.902;2023-09-18T03:18:06;99906.25;;;18.51;100.00
17525;BME280;40431;52.198;9.902;2023-09-18T03:20:33;99905.91;;;18.54;100.00
17525;BME280;40431;52.198;9.902;2023-09-18T03:23:02;99903.34;;;18.52;100.00
17525;BME280;40431;52.198;9.902;2023-09-18T03:25:28;99905.38;;;18.50;100.00
17525;BME280;40431;52.198;9.902;2023-09-18T03:27:56;99896.63;;;18.47;100.00
17525;BME280;40431;52.198;9.902;2023-09-18T03:30:24;99895.06;;;18.44;100.00
17525;BME280;40431;52.198;9.902;2023-09-18T03:32:50;99890.97;;;18.48;100.00
17525;BME280;40431;52.198;9.902;2023-09-18T03:35:18;99883.75;;;18.47;100.00
17525;BME280;40431;52.198;9.902;2023-09-18T03:37:44;99875.84;;;18.44;100.00
17525;BME280;40431;52.198;9.902;2023-09-18T03:40:13;99866.22;;;18.40;100.00
17525;BME280;40431;52.198;9.902;2023-09-18T03:42:40;99864.78;;;18.36;100.00
17525;BME280;40431;52.198;9.902;2023-09-18T03:45:07;99857.59;;;18.35;100.00
17525;BME280;40431;52.198;9.902;2023-09-18T03:47:34;99853.81;;;18.36;100.00
17525;BME280;40431;52.198;9.902;2023-09-18T03:50:01;99850.03;;;18.37;100.00
17525;BME280;40431;52.198;9.902;2023-09-18T03:52:27;99844.56;;;18.37;100.00
17525;BME280;40431;52.198;9.902;2023-09-18T03:54:54;99834.28;;;18.39;100.00
17525;BME280;40431;52.198;9.902;2023-09-18T03:57:21;99831.53;;;18.39;100.00
17525;BME280;40431;52.198;9.902;2023-09-18T03:59:48;99835.47;;;18.36;100.00
17525;BME280;40431;52.198;9.902;2023-09-18T04:02:14;99828.09;;;18.37;100.00
17525;BME280;40431;52.198;9.902;2023-09-18T04:04:41;99827.72;;;18.32;100.00
17525;BME280;40431;52.198;9.902;2023-09-18T04:07:08;99821.69;;;18.28;100.00
17525;BME280;40431;52.198;9.902;2023-09-18T04:09:35;99810.22;;;18.33;100.00
17525;BME280;40431;52.198;9.902;2023-09-18T04:12:01;99812.28;;;18.31;100.00
17525;BME280;40431;52.198;9.902;2023-09-18T04:14:31;99809.22;;;18.34;100.00
17525;BME280;40431;52.198;9.902;2023-09-18T04:16:58;99794.31;;;18.36;100.00
17525;BME280;40431;52.198;9.902;2023-09-18T04:19:25;99795.16;;;18.37;100.00
17525;BME280;40431;52.198;9.902;2023-09-18T04:21:52;99786.63;;;18.40;100.00
17525;BME280;40431;52.198;9.902;2023-09-18T04:24:18;99789.03;;;18.43;100.00
17525;BME280;40431;52.198;9.902;2023-09-18T04:26:44;99786.66;;;18.48;100.00
17525;BME280;40431;52.198;9.902;2023-09-18T04:29:11;99762.97;;;18.47;100.00
17525;BME280;40431;52.198;9.902;2023-09-18T04:31:39;99761.56;;;18.43;100.00
17525;BME280;40431;52.198;9.902;2023-09-18T04:34:05;99756.72;;;18.37;100.00
17525;BME280;40431;52.198;9.902;2023-09-18T04:36:31;99747.81;;;18.35;100.00
17525;BME280;40431;52.198;9.902;2023-09-18T04:38:58;99742.50;;;18.33;100.00
17525;BME280;40431;52.198;9.902;2023-09-18T04:41:24;99750.88;;;18.32;100.00
17525;BME280;40431;52.198;9.902;2023-09-18T04:43:51;99734.19;;;18.25;100.00
17525;BME280;40431;52.198;9.902;2023-09-18T04:46:17;99735.25;;;18.24;100.00
17525;BME280;40431;52.198;9.902;2023-09-18T04:48:45;99722.75;;;18.30;100.00
17525;BME280;40431;52.198;9.902;2023-09-18T04:51:12;99715.19;;;18.32;100.00
17525;BME280;40431;52.198;9.902;2023-09-18T04:53:38;99714.53;;;18.38;100.00
17525;BME280;40431;52.198;9.902;2023-09-18T04:56:06;99712.50;;;18.40;100.00
17525;BME280;40431;52.198;9.902;2023-09-18T04:58:33;99708.34;;;18.36;100.00
17525;BME280;40431;52.198;9.902;2023-09-18T05:00:59;99700.81;;;18.38;100.00
17525;BME280;40431;52.198;9.902;2023-09-18T05:03:26;99704.94;;;18.42;100.00
17525;BME280;40431;52.198;9.902;2023-09-18T05:05:55;99696.38;;;18.45;100.00
17525;BME280;40431;52.198;9.902;2023-09-18T05:08:22;99692.97;;;18.51;100.00
17525;BME280;40431;52.198;9.902;2023-09-18T05:10:48;99687.69;;;18.58;100.00
17525;BME280;40431;52.198;9.902;2023-09-18T05:13:15;99681.84;;;18.61;100.00
17525;BME280;40431;52.198;9.902;2023-09-18T05:15:42;99672.47;;;18.72;100.00
17525;BME280;40431;52.198;9.902;2023-09-18T05:18:08;99675.22;;;18.80;100.00
17525;BME280;40431;52.198;9.902;2023-09-18T05:20:35;99678.31;;;18.85;100.00
17525;BME280;40431;52.198;9.902;2023-09-18T05:23:03;99696.75;;;18.93;100.00
17525;BME280;40431;52.198;9.902;2023-09-18T05:25:29;99712.34;;;19.01;100.00
17525;BME280;40431;52.198;9.902;2023-09-18T05:27:58;99710.66;;;19.08;100.00
17525;BME280;40431;52.198;9.902;2023-09-18T05:30:27;99708.94;;;19.24;100.00
17525;BME280;40431;52.198;9.902;2023-09-18T05:32:54;99711.72;;;19.40;100.00
17525;BME280;40431;52.198;9.902;2023-09-18T05:35:21;99706.91;;;19.59;100.00
17525;BME280;40431;52.198;9.902;2023-09-18T05:37:49;99708.59;;;19.76;100.00
17525;BME280;40431;52.198;9.902;2023-09-18T05:40:17;99710.31;;;19.85;100.00
17525;BME280;40431;52.198;9.902;2023-09-18T05:42:44;99702.22;;;19.92;100.00
17525;BME280;40431;52.198;9.902;2023-09-18T05:45:11;99702.53;;;20.06;100.00
17525;BME280;40431;52.198;9.902;2023-09-18T05:47:38;99700.63;;;20.14;100.00
17525;BME280;40431;52.198;9.902;2023-09-18T05:50:06;99693.69;;;20.27;100.00
17525;BME280;40431;52.198;9.902;2023-09-18T05:52:32;99682.31;;;20.30;100.00
17525;BME280;40431;52.198;9.902;2023-09-18T05:54:59;99677.81;;;20.37;100.00
17525;BME280;40431;52.198;9.902;2023-09-18T05:57:27;99675.03;;;20.45;100.00
17525;BME280;40431;52.198;9.902;2023-09-18T05:59:54;99678.94;;;20.51;100.00
17525;BME280;40431;52.198;9.902;2023-09-18T06:02:20;99672.72;;;20.57;100.00
17525;BME280;40431;52.198;9.902;2023-09-18T06:04:47;99666.31;;;20.65;100.00
17525;BME280;40431;52.198;9.902;2023-09-18T06:07:13;99665.09;;;20.76;100.00
17525;BME280;40431;52.198;9.902;2023-09-18T06:09:40;99664.34;;;20.82;100.00
17525;BME280;40431;52.198;9.902;2023-09-18T06:12:06;99651.06;;;20.85;100.00
17525;BME280;40431;52.198;9.902;2023-09-18T06:14:36;99642.72;;;20.94;100.00
17525;BME280;40431;52.198;9.902;2023-09-18T06:17:03;99625.34;;;20.93;100.00
17525;BME280;40431;52.198;9.902;2023-09-18T06:19:31;99604.16;;;20.94;100.00
17525;BME280;40431;52.198;9.902;2023-09-18T06:21:58;99594.13;;;21.01;100.00
17525;BME280;40431;52.198;9.902;2023-09-18T06:24:24;99602.75;;;20.98;100.00
17525;BME280;40431;52.198;9.902;2023-09-18T06:26:50;99602.38;;;21.01;100.00
17525;BME280;40431;52.198;9.902;2023-09-18T06:29:18;99593.56;;;21.06;100.00
17525;BME280;40431;52.198;9.902;2023-09-18T06:31:46;99589.56;;;21.08;100.00
17525;BME280;40431;52.198;9.902;2023-09-18T06:34:12;99581.31;;;21.08;100.00
17525;BME280;40431;52.198;9.902;2023-09-18T06:36:38;99582.00;;;21.10;100.00
17525;BME280;40431;52.198;9.902;2023-09-18T06:39:06;99585.19;;;21.14;100.00
17525;BME280;40431;52.198;9.902;2023-09-18T06:41:32;99589.97;;;21.20;100.00
17525;BME280;40431;52.198;9.902;2023-09-18T06:43:59;99582.84;;;21.26;100.00
17525;BME280;40431;52.198;9.902;2023-09-18T06:46:28;99589.91;;;21.28;100.00
17525;BME280;40431;52.198;9.902;2023-09-18T06:48:55;99582.50;;;21.29;100.00
17525;BME280;40431;52.198;9.902;2023-09-18T06:51:22;99582.31;;;21.30;100.00
17525;BME280;40431;52.198;9.902;2023-09-18T06:53:49;99589.34;;;21.33;100.00
17525;BME280;40431;52.198;9.902;2023-09-18T06:56:15;99593.44;;;21.37;100.00
17525;BME280;40431;52.198;9.902;2023-09-18T06:58:41;99593.44;;;21.37;100.00
17525;BME280;40431;52.198;9.902;2023-09-18T07:01:08;99581.94;;;21.33;100.00
17525;BME280;40431;52.198;9.902;2023-09-18T07:03:35;99585.16;;;21.37;100.00
17525;BME280;40431;52.198;9.902;2023-09-18T07:06:03;99585.16;;;21.37;100.00
17525;BME280;40431;52.198;9.902;2023-09-18T07:08:29;99595.31;;;21.36;100.00
17525;BME280;40431;52.198;9.902;2023-09-18T07:10:56;99592.03;;;21.41;100.00
17525;BME280;40431;52.198;9.902;2023-09-18T07:13:22;99596.69;;;21.41;100.00
17525;BME280;40431;52.198;9.902;2023-09-18T07:15:49;99601.34;;;21.40;100.00
17525;BME280;40431;52.198;9.902;2023-09-18T07:18:15;99597.72;;;21.40;100.00
17525;BME280;40431;52.198;9.902;2023-09-18T07:20:43;99605.50;;;21.36;100.00
17525;BME280;40431;52.198;9.902;2023-09-18T07:23:11;99606.84;;;21.40;100.00
17525;BME280;40431;52.198;9.902;2023-09-18T07:25:38;99600.28;;;21.41;100.00
17525;BME280;40431;52.198;9.902;2023-09-18T07:28:05;99600.97;;;21.43;100.00
17525;BME280;40431;52.198;9.902;2023-09-18T07:30:31;99609.06;;;21.45;100.00
17525;BME280;40431;52.198;9.902;2023-09-18T07:32:58;99601.25;;;21.48;100.00
17525;BME280;40431;52.198;9.902;2023-09-18T07:35:25;99597.78;;;21.55;100.00
17525;BME280;40431;52.198;9.902;2023-09-18T07:37:52;99611.84;;;21.60;100.00
17525;BME280;40431;52.198;9.902;2023-09-18T07:40:20;99610.13;;;21.59;100.00
17525;BME280;40431;52.198;9.902;2023-09-18T07:42:47;99608.25;;;21.59;100.00
17525;BME280;40431;52.198;9.902;2023-09-18T07:45:13;99610.53;;;21.56;100.00
17525;BME280;40431;52.198;9.902;2023-09-18T07:47:40;99620.78;;;21.62;100.00
17525;BME280;40431;52.198;9.902;2023-09-18T07:50:07;99621.66;;;21.62;100.00
17525;BME280;40431;52.198;9.902;2023-09-18T07:52:33;99622.16;;;21.66;100.00
17525;BME280;40431;52.198;9.902;2023-09-18T07:55:00;99610.25;;;21.65;100.00
17525;BME280;40431;52.198;9.902;2023-09-18T07:57:28;99610.34;;;21.72;100.00
17525;BME280;40431;52.198;9.902;2023-09-18T07:59:55;99617.19;;;21.76;100.00
17525;BME280;40431;52.198;9.902;2023-09-18T08:02:22;99610.91;;;21.82;100.00
17525;BME280;40431;52.198;9.902;2023-09-18T08:04:48;99621.56;;;21.85;100.00
17525;BME280;40431;52.198;9.902;2023-09-18T08:07:15;99619.78;;;21.93;100.00
17525;BME280;40431;52.198;9.902;2023-09-18T08:09:41;99620.72;;;22.00;99.89
17525;BME280;40431;52.198;9.902;2023-09-18T08:12:09;99616.41;;;22.12;98.16
17525;BME280;40431;52.198;9.902;2023-09-18T08:14:37;99623.44;;;22.15;98.58
17525;BME280;40431;52.198;9.902;2023-09-18T08:17:04;99640.78;;;22.24;98.55
17525;BME280;40431;52.198;9.902;2023-09-18T08:19:30;99638.03;;;22.24;98.10
17525;BME280;40431;52.198;9.902;2023-09-18T08:21:58;99642.97;;;22.28;98.01
17525;BME280;40431;52.198;9.902;2023-09-18T08:24:25;99646.00;;;22.33;97.13
17525;BME280;40431;52.198;9.902;2023-09-18T08:26:51;99646.69;;;22.35;97.17
17525;BME280;40431;52.198;9.902;2023-09-18T08:29:19;99639.25;;;22.36;96.46
17525;BME280;40431;52.198;9.902;2023-09-18T08:31:46;99647.53;;;22.36;95.59
17525;BME280;40431;52.198;9.902;2023-09-18T08:34:13;99636.78;;;22.41;95.45
17525;BME280;40431;52.198;9.902;2023-09-18T08:36:39;99633.06;;;22.49;95.42
17525;BME280;40431;52.198;9.902;2023-09-18T08:39:06;99639.69;;;22.55;94.50
17525;BME280;40431;52.198;9.902;2023-09-18T08:41:33;99645.09;;;22.63;94.97
17525;BME280;40431;52.198;9.902;2023-09-18T08:44:01;99626.03;;;22.68;94.61
17525;BME280;40431;52.198;9.902;2023-09-18T08:46:29;99630.78;;;22.74;93.90
17525;BME280;40431;52.198;9.902;2023-09-18T08:48:57;99635.75;;;22.79;93.45
17525;BME280;40431;52.198;9.902;2023-09-18T08:51:25;99631.69;;;22.81;93.91
17525;BME280;40431;52.198;9.902;2023-09-18T08:53:53;99642.38;;;22.84;93.72
17525;BME280;40431;52.198;9.902;2023-09-18T08:56:21;99628.78;;;22.83;93.42
17525;BME280;40431;52.198;9.902;2023-09-18T08:58:47;99626.72;;;22.92;92.51
17525;BME280;40431;52.198;9.902;2023-09-18T09:01:14;99628.03;;;22.96;91.81
17525;BME280;40431;52.198;9.902;2023-09-18T09:03:41;99617.50;;;23.06;90.99
17525;BME280;40431;52.198;9.902;2023-09-18T09:06:12;99626.25;;;23.10;90.60
17525;BME280;40431;52.198;9.902;2023-09-18T09:08:38;99627.78;;;23.12;90.53
17525;BME280;40431;52.198;9.902;2023-09-18T09:11:05;99630.84;;;23.17;90.10
17525;BME280;40431;52.198;9.902;2023-09-18T09:13:32;99622.91;;;23.14;91.34
17525;BME280;40431;52.198;9.902;2023-09-18T09:15:58;99625.75;;;23.21;91.53
17525;BME280;40431;52.198;9.902;2023-09-18T09:18:27;99605.34;;;23.22;89.26
17525;BME280;40431;52.198;9.902;2023-09-18T09:20:55;99634.25;;;23.20;89.96
17525;BME280;40431;52.198;9.902;2023-09-18T09:23:25;99631.28;;;23.21;91.15
17525;BME280;40431;52.198;9.902;2023-09-18T09:25:52;99632.34;;;23.20;91.00
17525;BME280;40431;52.198;9.902;2023-09-18T09:28:28;99626.69;;;23.28;89.22
17525;BME280;40431;52.198;9.902;2023-09-18T09:31:00;99635.56;;;23.24;90.07
17525;BME280;40431;52.198;9.902;2023-09-18T09:33:27;99639.78;;;23.20;91.02
17525;BME280;40431;52.198;9.902;2023-09-18T09:35:54;99641.03;;;23.17;91.33
17525;BME280;40431;52.198;9.902;2023-09-18T09:38:29;99645.72;;;23.16;90.72
17525;BME280;40431;52.198;9.902;2023-09-18T09:40:57;99637.00;;;23.20;89.93
17525;BME280;40431;52.198;9.902;2023-09-18T09:43:25;99635.69;;;23.15;90.59
17525;BME280;40431;52.198;9.902;2023-09-18T09:45:56;99629.88;;;23.10;90.34
17525;BME280;40431;52.198;9.902;2023-09-18T09:48:23;99636.19;;;23.04;90.03
17525;BME280;40431;52.198;9.902;2023-09-18T09:50:51;99637.47;;;23.01;89.84
17525;BME280;40431;52.198;9.902;2023-09-18T09:53:45;99638.66;;;22.92;89.91
17525;BME280;40431;52.198;9.902;2023-09-18T09:56:13;99636.53;;;22.94;90.32
17525;BME280;40431;52.198;9.902;2023-09-18T09:58:40;99641.41;;;22.92;90.10
17525;BME280;40431;52.198;9.902;2023-09-18T10:01:11;99644.81;;;22.94;89.70
17525;BME280;40431;52.198;9.902;2023-09-18T10:03:43;99639.09;;;22.96;90.70
17525;BME280;40431;52.198;9.902;2023-09-18T10:06:10;99635.75;;;23.00;90.24
17525;BME280;40431;52.198;9.902;2023-09-18T10:08:39;99637.47;;;23.01;89.45
17525;BME280;40431;52.198;9.902;2023-09-18T10:11:08;99638.56;;;23.07;88.75
17525;BME280;40431;52.198;9.902;2023-09-18T10:13:40;99633.69;;;23.09;88.22
17525;BME280;40431;52.198;9.902;2023-09-18T10:16:09;99643.16;;;23.15;88.23
17525;BME280;40431;52.198;9.902;2023-09-18T10:18:43;99646.47;;;23.10;88.84
17525;BME280;40431;52.198;9.902;2023-09-18T10:21:16;99637.69;;;23.07;88.94
17525;BME280;40431;52.198;9.902;2023-09-18T10:24:04;99630.00;;;23.02;89.57
17525;BME280;40431;52.198;9.902;2023-09-18T10:26:35;99638.38;;;23.09;88.71
17525;BME280;40431;52.198;9.902;2023-09-18T10:29:07;99644.31;;;23.06;89.18
17525;BME280;40431;52.198;9.902;2023-09-18T10:31:37;99646.47;;;23.10;89.23
17525;BME280;40431;52.198;9.902;2023-09-18T10:34:06;99634.66;;;23.16;89.19
17525;BME280;40431;52.198;9.902;2023-09-18T10:36:34;99642.59;;;23.26;88.43
17525;BME280;40431;52.198;9.902;2023-09-18T10:39:01;99652.16;;;23.24;88.58
17525;BME280;40431;52.198;9.902;2023-09-18T10:41:35;99650.44;;;23.23;87.31
17525;BME280;40431;52.198;9.902;2023-09-18T10:44:03;99646.34;;;23.18;88.21
17525;BME280;40431;52.198;9.902;2023-09-18T10:46:30;99654.47;;;23.20;88.43
17525;BME280;40431;52.198;9.902;2023-09-18T10:48:58;99661.91;;;23.20;88.25
17525;BME280;40431;52.198;9.902;2023-09-18T10:51:25;99667.16;;;23.14;88.55
17525;BME280;40431;52.198;9.902;2023-09-18T10:53:52;99666.50;;;23.12;88.97
17525;BME280;40431;52.198;9.902;2023-09-18T10:56:19;99674.22;;;23.17;88.69
17525;BME280;40431;52.198;9.902;2023-09-18T10:58:55;99675.59;;;23.28;89.05
17525;BME280;40431;52.198;9.902;2023-09-18T11:01:23;99684.56;;;23.30;87.94
17525;BME280;40431;52.198;9.902;2023-09-18T11:03:52;99693.91;;;23.29;87.71
17525;BME280;40431;52.198;9.902;2023-09-18T11:06:18;99706.47;;;23.31;87.38
17525;BME280;40431;52.198;9.902;2023-09-18T11:08:49;99697.34;;;23.31;86.61
17525;BME280;40431;52.198;9.902;2023-09-18T11:11:18;99706.28;;;23.33;86.91
17525;BME280;40431;52.198;9.902;2023-09-18T11:13:49;99711.81;;;23.33;88.86
17525;BME280;40431;52.198;9.902;2023-09-18T11:16:33;99707.28;;;23.47;87.76
17525;BME280;40431;52.198;9.902;2023-09-18T11:19:11;99689.41;;;23.49;87.85
17525;BME280;40431;52.198;9.902;2023-09-18T11:21:39;99690.31;;;23.57;87.71
17525;BME280;40431;52.198;9.902;2023-09-18T11:24:07;99705.19;;;23.56;86.31
17525;BME280;40431;52.198;9.902;2023-09-18T11:26:37;99697.16;;;23.61;85.72
17525;BME280;40431;52.198;9.902;2023-09-18T11:29:07;99677.25;;;23.72;86.77
17525;BME280;40431;52.198;9.902;2023-09-18T11:31:45;99682.22;;;23.83;86.92
17525;BME280;40431;52.198;9.902;2023-09-18T11:34:14;99675.50;;;23.93;85.22
17525;BME280;40431;52.198;9.902;2023-09-18T11:36:40;99675.22;;;23.88;83.31
17525;BME280;40431;52.198;9.902;2023-09-18T11:39:07;99669.88;;;23.86;83.65
17525;BME280;40431;52.198;9.902;2023-09-18T11:41:35;99680.13;;;23.85;84.30
17525;BME280;40431;52.198;9.902;2023-09-18T11:44:32;99684.09;;;23.76;83.54
17525;BME280;40431;52.198;9.902;2023-09-18T11:47:02;99686.88;;;23.76;84.90
17525;BME280;40431;52.198;9.902;2023-09-18T11:49:29;99679.59;;;23.75;83.98
17525;BME280;40431;52.198;9.902;2023-09-18T11:51:58;99662.75;;;23.70;84.28
17525;BME280;40431;52.198;9.902;2023-09-18T11:54:25;99649.53;;;23.65;84.26
17525;BME280;40431;52.198;9.902;2023-09-18T11:56:51;99666.97;;;23.66;85.11
17525;BME280;40431;52.198;9.902;2023-09-18T11:59:18;99677.63;;;23.69;85.97
17525;BME280;40431;52.198;9.902;2023-09-18T12:01:53;99669.38;;;23.76;85.82
17525;BME280;40431;52.198;9.902;2023-09-18T12:04:27;99678.31;;;23.71;84.75
17525;BME280;40431;52.198;9.902;2023-09-18T12:06:54;99684.09;;;23.76;84.93
17525;BME280;40431;52.198;9.902;2023-09-18T12:09:21;99686.69;;;23.84;83.60
17525;BME280;40431;52.198;9.902;2023-09-18T12:11:47;99701.22;;;23.87;83.98
17525;BME280;40431;52.198;9.902;2023-09-18T12:14:18;99707.38;;;23.89;84.01
17525;BME280;40431;52.198;9.902;2023-09-18T12:16:45;99713.63;;;23.91;84.25
17525;BME280;40431;52.198;9.902;2023-09-18T12:19:17;99710.66;;;23.92;81.64
17525;BME280;40431;52.198;9.902;2023-09-18T12:21:45;99718.13;;;23.98;82.13
17525;BME280;40431;52.198;9.902;2023-09-18T12:24:13;99710.03;;;23.97;83.67
17525;BME280;40431;52.198;9.902;2023-09-18T12:26:40;99705.66;;;24.09;82.91
17525;BME280;40431;52.198;9.902;2023-09-18T12:29:06;99699.88;;;24.04;81.81
17525;BME280;40431;52.198;9.902;2023-09-18T12:31:33;99691.31;;;23.99;81.78
17525;BME280;40431;52.198;9.902;2023-09-18T12:33:59;99683.47;;;24.03;82.29
17525;BME280;40431;52.198;9.902;2023-09-18T12:36:27;99690.91;;;24.02;80.87
17525;BME280;40431;52.198;9.902;2023-09-18T12:38:55;99703.91;;;24.01;80.43
17525;BME280;40431;52.198;9.902;2023-09-18T12:41:24;99701.34;;;24.00;80.89
17525;BME280;40431;52.198;9.902;2023-09-18T12:43:52;99691.94;;;24.01;81.27
17525;BME280;40431;52.198;9.902;2023-09-18T12:46:19;99692.31;;;23.91;81.03
17525;BME280;40431;52.198;9.902;2023-09-18T12:48:46;99684.22;;;23.90;81.79
17525;BME280;40431;52.198;9.902;2023-09-18T12:51:13;99694.28;;;23.97;81.75
17525;BME280;40431;52.198;9.902;2023-09-18T12:53:43;99689.13;;;23.94;81.07
17525;BME280;40431;52.198;9.902;2023-09-18T12:56:11;99692.69;;;23.88;81.40